Time;durP1;ratioP1;P1;durP2;ratioP2;P2;SDS_P1;SDS_P2;PMS_P1;PMS_P2;Temp;Humidity;BMP_temperature;BMP_pressure;BME280_temperature;BME280_humidity;BME280_pressure;Samples;Min_cycle;Max_cycle;Signal;HPM_P1;HPM_P2
2022/04/29 00:02:12;;;;;;;;;;;8.60;99.90;;;;;;5066597;28;19924;-68
2022/04/29 00:04:39;;;;;;;;;;;8.50;99.90;;;;;;5065531;28;19927;-68
2022/04/29 00:07:06;;;;;;;;;;;8.50;99.90;;;;;;5066432;28;20204;-68
2022/04/29 00:09:33;;;;;;;;;;;8.40;99.90;;;;;;5066416;28;19921;-69
2022/04/29 00:11:59;;;;;;;;;;;8.40;99.90;;;;;;5066432;28;19929;-68
2022/04/29 00:14:26;;;;;;;;;;;8.30;99.90;;;;;;5065613;28;20216;-68
2022/04/29 00:16:52;;;;;;;;;;;8.30;99.90;;;;;;5066377;28;19920;-68
2022/04/29 00:19:20;;;;;;;;;;;8.20;99.90;;;;;;5066391;28;19928;-69
2022/04/29 00:21:47;;;;;;;;;;;8.20;99.90;;;;;;5066025;28;19921;-68
2022/04/29 00:24:14;;;;;;;;;;;8.20;99.90;;;;;;5065784;28;19921;-68
2022/04/29 00:26:41;;;;;;;;;;;8.20;99.90;;;;;;5065407;28;19929;-68
2022/04/29 00:29:08;;;;;;;;;;;8.20;99.90;;;;;;5066010;28;19921;-68
2022/04/29 00:31:35;;;;;;;;;;;8.10;99.90;;;;;;5065709;28;19991;-68
2022/04/29 00:34:02;;;;;;;;;;;8.10;99.90;;;;;;5065627;28;19927;-68
2022/04/29 00:36:30;;;;;;;;;;;8.10;99.90;;;;;;5065575;28;19924;-68
2022/04/29 00:38:56;;;;;;;;;;;8.10;99.90;;;;;;5065555;28;19921;-68
2022/04/29 00:41:23;;;;;;;;;;;8.10;99.90;;;;;;5065682;28;19921;-68
2022/04/29 00:43:58;;;;;;;;;;;8.10;99.90;;;;;;5064961;28;19920;-67
2022/04/29 00:46:25;;;;;;;;;;;8.10;99.90;;;;;;5065533;28;19931;-68
2022/04/29 00:48:51;;;;;;;;;;;8.00;99.90;;;;;;5065524;28;19928;-68
2022/04/29 00:51:18;;;;;;;;;;;8.00;99.90;;;;;;5065845;28;19927;-68
2022/04/29 00:53:46;;;;;;;;;;;8.00;99.90;;;;;;5065377;28;19927;-69
2022/04/29 00:56:14;;;;;;;;;;;7.90;99.90;;;;;;5064952;28;20230;-68
2022/04/29 00:58:43;;;;;;;;;;;7.80;99.90;;;;;;5065329;28;20231;-68
2022/04/29 01:01:11;;;;;;;;;;;7.70;99.90;;;;;;5065282;28;19927;-69
2022/04/29 01:03:38;;;;;;;;;;;7.70;99.90;;;;;;5065175;28;20141;-68
2022/04/29 01:06:05;;;;;;;;;;;7.70;99.90;;;;;;5064800;28;19921;-68
2022/04/29 01:08:31;;;;;;;;;;;7.60;99.90;;;;;;5065364;28;19921;-68
2022/04/29 01:10:59;;;;;;;;;;;7.60;99.90;;;;;;5064337;28;19974;-69
2022/04/29 01:13:26;;;;;;;;;;;7.40;99.90;;;;;;5065012;28;20105;-68
2022/04/29 01:15:57;;;;;;;;;;;7.40;99.90;;;;;;5064515;28;19921;-68
2022/04/29 01:21:01;;;;;;;;;;;7.30;99.90;;;;;;5048719;28;19921;-68
2022/04/29 01:23:29;;;;;;;;;;;7.30;99.90;;;;;;5045620;28;19921;-68
2022/04/29 01:25:55;;;;;;;;;;;7.30;99.90;;;;;;5064725;28;19921;-68
2022/04/29 01:28:23;;;;;;;;;;;7.30;99.90;;;;;;5064576;28;19935;-68
2022/04/29 01:30:51;;;;;;;;;;;7.30;99.90;;;;;;5065196;28;19929;-68
2022/04/29 01:33:18;;;;;;;;;;;7.20;99.90;;;;;;5064786;28;19959;-68
2022/04/29 01:35:46;;;;;;;;;;;7.20;99.90;;;;;;5080389;28;19921;-68
2022/04/29 01:38:12;;;;;;;;;;;7.20;99.90;;;;;;5084926;28;20063;-68
2022/04/29 01:40:40;;;;;;;;;;;7.20;99.90;;;;;;5084529;28;19926;-68
2022/04/29 01:43:07;;;;;;;;;;;7.10;99.90;;;;;;5081324;28;20241;-67
2022/04/29 01:45:33;;;;;;;;;;;7.10;99.90;;;;;;5064137;28;19921;-68
2022/04/29 01:48:00;;;;;;;;;;;7.10;99.90;;;;;;5064379;28;20201;-68
2022/04/29 01:50:26;;;;;;;;;;;7.00;99.90;;;;;;5064569;28;19925;-68
2022/04/29 01:52:53;;;;;;;;;;;7.00;99.90;;;;;;5064467;28;20154;-68
2022/04/29 01:55:20;;;;;;;;;;;6.90;99.90;;;;;;5064142;28;19921;-68
2022/04/29 01:57:49;;;;;;;;;;;6.90;99.90;;;;;;5063485;28;19920;-68
2022/04/29 02:00:16;;;;;;;;;;;6.80;99.90;;;;;;5064108;28;19921;-68
2022/04/29 02:02:43;;;;;;;;;;;6.80;99.90;;;;;;5064343;28;19921;-68
2022/04/29 02:05:11;;;;;;;;;;;6.80;99.90;;;;;;5063538;28;20175;-68
2022/04/29 02:07:37;;;;;;;;;;;6.70;99.90;;;;;;5063325;28;20250;-68
2022/04/29 02:10:04;;;;;;;;;;;6.60;99.90;;;;;;5063934;28;19944;-67
2022/04/29 02:12:31;;;;;;;;;;;6.60;99.90;;;;;;5063901;28;19920;-68
2022/04/29 02:14:59;;;;;;;;;;;6.50;99.90;;;;;;5070839;28;19920;-67
2022/04/29 02:17:25;;;;;;;;;;;6.40;99.90;;;;;;5083660;28;19921;-68
2022/04/29 02:19:52;;;;;;;;;;;6.30;99.90;;;;;;5083704;28;19921;-68
2022/04/29 02:22:18;;;;;;;;;;;6.20;99.90;;;;;;5084016;28;19926;-68
2022/04/29 02:24:45;;;;;;;;;;;6.20;99.90;;;;;;5083436;28;20115;-68
2022/04/29 02:27:12;;;;;;;;;;;6.20;99.90;;;;;;5069786;28;19928;-68
2022/04/29 02:29:38;;;;;;;;;;;6.10;99.90;;;;;;5063815;28;19929;-67
2022/04/29 02:32:07;;;;;;;;;;;6.10;99.90;;;;;;5063748;28;19927;-68
2022/04/29 02:34:36;;;;;;;;;;;6.10;99.90;;;;;;5064039;28;20234;-68
2022/04/29 02:37:03;;;;;;;;;;;6.10;99.90;;;;;;5063186;28;19921;-68
2022/04/29 02:39:29;;;;;;;;;;;6.10;99.90;;;;;;5063395;28;19921;-68
2022/04/29 02:41:56;;;;;;;;;;;6.00;99.90;;;;;;5063173;28;20120;-68
2022/04/29 02:44:23;;;;;;;;;;;6.00;99.90;;;;;;5063328;28;19927;-68
2022/04/29 02:47:07;;;;;;;;;;;6.00;99.90;;;;;;5063262;28;19921;-67
2022/04/29 02:49:35;;;;;;;;;;;6.00;99.90;;;;;;5063394;28;19920;-68
2022/04/29 02:52:02;;;;;;;;;;;6.00;99.90;;;;;;5063327;28;19959;-68
2022/04/29 02:54:29;;;;;;;;;;;6.00;99.90;;;;;;5063724;28;19920;-67
2022/04/29 02:56:55;;;;;;;;;;;6.00;99.90;;;;;;5063493;28;19921;-68
2022/04/29 02:59:22;;;;;;;;;;;6.00;99.90;;;;;;5063168;28;19921;-68
2022/04/29 03:01:49;;;;;;;;;;;5.90;99.90;;;;;;5063489;28;20247;-68
2022/04/29 03:04:15;;;;;;;;;;;5.90;99.90;;;;;;5063198;28;19920;-68
2022/04/29 03:06:43;;;;;;;;;;;5.90;99.90;;;;;;5062641;28;19988;-68
2022/04/29 03:09:10;;;;;;;;;;;5.90;99.90;;;;;;5063136;28;19927;-68
2022/04/29 03:11:37;;;;;;;;;;;5.80;99.90;;;;;;5063178;28;20287;-68
2022/04/29 03:14:03;;;;;;;;;;;5.90;99.90;;;;;;5062893;28;19924;-68
2022/04/29 03:16:30;;;;;;;;;;;5.90;99.90;;;;;;5080699;28;20199;-68
2022/04/29 03:18:57;;;;;;;;;;;5.90;99.90;;;;;;5083097;28;19924;-68
2022/04/29 03:21:23;;;;;;;;;;;5.80;99.90;;;;;;5082975;28;19943;-67
2022/04/29 03:23:51;;;;;;;;;;;5.80;99.90;;;;;;5083405;28;19987;-68
2022/04/29 03:26:18;;;;;;;;;;;5.80;99.90;;;;;;5066285;28;19927;-68
2022/04/29 03:28:45;;;;;;;;;;;5.70;99.90;;;;;;5062858;28;19927;-68
2022/04/29 03:31:11;;;;;;;;;;;5.70;99.90;;;;;;5062927;28;19921;-68
2022/04/29 03:33:38;;;;;;;;;;;5.70;99.90;;;;;;5062809;28;20226;-68
2022/04/29 03:36:05;;;;;;;;;;;5.70;99.90;;;;;;5076672;28;19927;-68
2022/04/29 03:38:31;;;;;;;;;;;5.60;99.90;;;;;;5068926;28;19927;-68
2022/04/29 03:40:59;;;;;;;;;;;5.60;99.90;;;;;;5062708;28;19921;-68
2022/04/29 03:43:27;;;;;;;;;;;5.60;99.90;;;;;;5062786;28;19928;-68
2022/04/29 03:45:54;;;;;;;;;;;5.60;99.90;;;;;;5074949;28;19959;-68
2022/04/29 03:48:21;;;;;;;;;;;5.60;99.90;;;;;;5082982;28;19928;-67
2022/04/29 03:50:48;;;;;;;;;;;5.70;99.90;;;;;;5082752;28;19928;-68
2022/04/29 03:53:14;;;;;;;;;;;5.60;99.90;;;;;;5082780;28;19920;-68
2022/04/29 03:55:41;;;;;;;;;;;5.60;99.90;;;;;;5071844;28;20112;-68
2022/04/29 03:58:09;;;;;;;;;;;5.60;99.90;;;;;;5062384;28;19921;-68
2022/04/29 04:00:35;;;;;;;;;;;5.60;99.90;;;;;;5062544;28;19929;-68
2022/04/29 04:03:05;;;;;;;;;;;5.60;99.90;;;;;;5062608;28;19921;-68
2022/04/29 04:05:32;;;;;;;;;;;5.60;99.90;;;;;;5071344;28;19921;-67
2022/04/29 04:07:58;;;;;;;;;;;5.60;99.90;;;;;;5081858;28;20235;-68
2022/04/29 04:10:25;;;;;;;;;;;5.60;99.90;;;;;;5082797;28;19920;-68
2022/04/29 04:12:52;;;;;;;;;;;5.60;99.90;;;;;;5071747;28;19927;-68
2022/04/29 04:15:21;;;;;;;;;;;5.60;99.90;;;;;;5069426;28;19944;-68
2022/04/29 04:17:48;;;;;;;;;;;5.60;99.90;;;;;;5070569;28;20144;-67
2022/04/29 04:20:16;;;;;;;;;;;5.50;99.90;;;;;;5064324;28;19920;-68
2022/04/29 04:22:42;;;;;;;;;;;5.50;99.90;;;;;;5066361;28;19928;-68
2022/04/29 04:25:10;;;;;;;;;;;5.50;99.90;;;;;;5079826;28;19921;-67
2022/04/29 04:27:36;;;;;;;;;;;5.50;99.90;;;;;;5084669;28;19920;-68
2022/04/29 04:30:03;;;;;;;;;;;5.50;99.90;;;;;;5085800;28;19928;-68
2022/04/29 04:32:33;;;;;;;;;;;5.40;99.90;;;;;;5072740;28;19924;-68
2022/04/29 04:35:00;;;;;;;;;;;5.40;99.90;;;;;;5085003;28;19927;-68
2022/04/29 04:37:27;;;;;;;;;;;5.40;99.90;;;;;;5085756;28;19927;-67
2022/04/29 04:39:54;;;;;;;;;;;5.40;99.90;;;;;;5085866;28;19927;-68
2022/04/29 04:42:22;;;;;;;;;;;5.40;99.90;;;;;;5085961;28;19926;-68
2022/04/29 04:44:50;;;;;;;;;;;5.40;99.90;;;;;;5085731;28;19927;-68
2022/04/29 04:47:17;;;;;;;;;;;5.40;99.90;;;;;;5072085;28;19925;-68
2022/04/29 04:49:45;;;;;;;;;;;5.30;99.90;;;;;;5065507;28;20163;-67
2022/04/29 04:52:12;;;;;;;;;;;5.30;99.90;;;;;;5065619;28;19921;-68
2022/04/29 04:54:38;;;;;;;;;;;5.20;99.90;;;;;;5065630;28;19921;-68
2022/04/29 04:57:05;;;;;;;;;;;5.20;99.90;;;;;;5059839;28;19933;-68
2022/04/29 04:59:32;;;;;;;;;;;5.30;99.90;;;;;;5067786;28;19920;-68
2022/04/29 05:01:59;;;;;;;;;;;5.30;99.90;;;;;;5071529;28;19921;-67
2022/04/29 05:04:25;;;;;;;;;;;5.40;99.90;;;;;;5056963;28;19921;-67
2022/04/29 05:06:53;;;;;;;;;;;5.40;99.90;;;;;;5064972;28;19921;-67
2022/04/29 05:09:20;;;;;;;;;;;5.40;99.90;;;;;;5056653;28;19921;-69
2022/04/29 05:11:46;;;;;;;;;;;5.50;99.90;;;;;;5064987;28;19947;-67
2022/04/29 05:14:13;;;;;;;;;;;5.50;99.90;;;;;;5046776;28;19929;-67
2022/04/29 05:16:39;;;;;;;;;;;5.60;99.90;;;;;;5044861;28;19921;-68
2022/04/29 05:19:06;;;;;;;;;;;5.70;99.90;;;;;;5045676;28;20201;-68
2022/04/29 05:21:33;;;;;;;;;;;5.80;99.90;;;;;;5064846;28;19920;-67
2022/04/29 05:24:02;;;;;;;;;;;5.90;99.90;;;;;;5063129;28;19992;-68
2022/04/29 05:26:28;;;;;;;;;;;6.00;99.90;;;;;;5064559;28;19921;-68
2022/04/29 05:28:55;;;;;;;;;;;6.10;99.90;;;;;;5064992;28;19921;-68
2022/04/29 05:31:21;;;;;;;;;;;6.20;99.90;;;;;;5064289;28;20156;-68
2022/04/29 05:33:48;;;;;;;;;;;6.30;99.90;;;;;;5064342;28;19920;-68
2022/04/29 05:36:15;;;;;;;;;;;6.50;99.90;;;;;;5064391;28;19956;-68
2022/04/29 05:44:11;;;;;;;;;;;6.80;99.90;;;;;;5064849;28;20042;-65
2022/04/29 05:46:38;;;;;;;;;;;6.80;99.90;;;;;;5064439;28;19921;-64
2022/04/29 05:49:05;;;;;;;;;;;6.90;99.90;;;;;;5062642;28;19925;-65
2022/04/29 05:51:31;;;;;;;;;;;7.00;99.90;;;;;;5064570;28;20266;-64
2022/04/29 05:54:00;;;;;;;;;;;7.10;99.90;;;;;;5064832;28;19921;-65
2022/04/29 05:56:28;;;;;;;;;;;7.10;99.90;;;;;;5064076;28;19920;-65
2022/04/29 05:58:55;;;;;;;;;;;7.20;99.90;;;;;;5064468;28;20115;-65
2022/04/29 06:01:21;;;;;;;;;;;7.30;99.90;;;;;;5064233;28;20123;-65
2022/04/29 06:03:48;;;;;;;;;;;7.30;99.90;;;;;;5063880;28;19928;-65
2022/04/29 06:06:14;;;;;;;;;;;7.40;99.90;;;;;;5063861;28;19921;-65
2022/04/29 06:08:43;;;;;;;;;;;7.40;99.90;;;;;;5063517;28;20227;-65
2022/04/29 06:11:09;;;;;;;;;;;7.50;99.90;;;;;;5064155;28;20090;-65
2022/04/29 06:13:38;;;;;;;;;;;7.60;99.90;;;;;;5064395;28;20204;-65
2022/04/29 06:16:05;;;;;;;;;;;7.70;99.90;;;;;;5063906;28;20216;-65
2022/04/29 06:18:33;;;;;;;;;;;7.70;99.90;;;;;;5063769;28;20306;-64
2022/04/29 06:20:59;;;;;;;;;;;7.80;99.90;;;;;;5064332;28;19966;-66
2022/04/29 06:23:26;;;;;;;;;;;7.80;99.90;;;;;;5064153;28;19927;-64
2022/04/29 06:25:52;;;;;;;;;;;7.90;99.90;;;;;;5063780;28;19920;-66
2022/04/29 06:28:19;;;;;;;;;;;8.00;99.90;;;;;;5063957;28;19920;-65
2022/04/29 06:30:47;;;;;;;;;;;8.10;99.90;;;;;;5063536;28;19921;-65
2022/04/29 06:33:17;;;;;;;;;;;8.20;99.90;;;;;;5062862;28;20471;-65
2022/04/29 06:35:44;;;;;;;;;;;8.30;99.90;;;;;;5063662;28;19921;-65
2022/04/29 06:38:11;;;;;;;;;;;8.30;99.90;;;;;;5063818;28;19920;-64
2022/04/29 06:40:37;;;;;;;;;;;8.40;99.90;;;;;;5063686;28;19928;-67
2022/04/29 06:43:04;;;;;;;;;;;8.40;99.90;;;;;;5062831;28;19943;-67
2022/04/29 06:45:31;;;;;;;;;;;8.50;99.90;;;;;;5063280;28;19925;-68
2022/04/29 06:47:58;;;;;;;;;;;8.60;99.90;;;;;;5064009;28;19921;-67
2022/04/29 06:50:25;;;;;;;;;;;8.70;99.90;;;;;;5063865;28;19927;-67
2022/04/29 06:52:53;;;;;;;;;;;8.80;99.90;;;;;;5063292;28;20115;-65
2022/04/29 06:55:19;;;;;;;;;;;8.90;99.90;;;;;;5063313;28;19924;-68
2022/04/29 06:57:47;;;;;;;;;;;9.00;99.90;;;;;;5063920;28;19921;-67
2022/04/29 07:00:14;;;;;;;;;;;9.10;99.90;;;;;;5063730;28;19962;-68
2022/04/29 07:02:41;;;;;;;;;;;9.20;99.90;;;;;;5063365;28;19921;-67
2022/04/29 07:05:09;;;;;;;;;;;9.30;99.90;;;;;;5063483;28;19958;-67
2022/04/29 07:07:36;;;;;;;;;;;9.50;99.90;;;;;;5063590;28;19928;-68
2022/04/29 07:10:02;;;;;;;;;;;9.60;99.90;;;;;;5063390;28;19924;-68
2022/04/29 07:12:31;;;;;;;;;;;9.80;99.90;;;;;;5063679;28;19927;-67
2022/04/29 07:14:58;;;;;;;;;;;10.10;99.90;;;;;;5063542;28;19920;-67
2022/04/29 07:17:24;;;;;;;;;;;10.30;99.90;;;;;;5062967;28;19929;-67
2022/04/29 07:19:51;;;;;;;;;;;10.50;99.90;;;;;;5061599;22;19922;-68
2022/04/29 07:22:19;;;;;;;;;;;10.70;99.90;;;;;;5062834;28;19927;-68
2022/04/29 07:24:47;;;;;;;;;;;11.00;99.90;;;;;;5049735;28;19921;-68
2022/04/29 07:27:14;;;;;;;;;;;11.20;99.90;;;;;;5066908;28;19920;-68
2022/04/29 07:29:40;;;;;;;;;;;11.50;99.90;;;;;;5072494;28;20279;-68
2022/04/29 07:32:07;;;;;;;;;;;11.60;99.90;;;;;;5062793;28;19928;-68
2022/04/29 07:42:48;;;;;;;;;;;12.30;99.90;;;;;;5062729;28;20004;-65
2022/04/29 07:45:14;;;;;;;;;;;12.40;99.90;;;;;;5062444;28;19983;-68
2022/04/29 07:47:41;;;;;;;;;;;12.50;99.90;;;;;;5062586;28;19928;-68
2022/04/29 07:50:08;;;;;;;;;;;12.70;99.90;;;;;;5062539;28;19921;-68
2022/04/29 07:52:36;;;;;;;;;;;12.80;99.90;;;;;;5062823;28;20196;-69
2022/04/29 07:55:02;;;;;;;;;;;12.90;99.90;;;;;;5066191;28;19927;-68
2022/04/29 07:57:29;;;;;;;;;;;13.00;99.90;;;;;;5057233;28;20208;-68
2022/04/29 07:59:55;;;;;;;;;;;13.20;99.90;;;;;;5075127;28;20200;-69
2022/04/29 08:02:22;;;;;;;;;;;13.40;99.90;;;;;;5046812;28;19943;-68
2022/04/29 08:04:48;;;;;;;;;;;13.50;99.90;;;;;;5046688;28;20020;-68
2022/04/29 08:07:15;;;;;;;;;;;13.60;99.90;;;;;;5046350;28;20205;-68
2022/04/29 08:09:43;;;;;;;;;;;13.70;99.90;;;;;;5046178;28;19928;-69
2022/04/29 08:12:11;;;;;;;;;;;13.90;99.90;;;;;;5066483;28;19927;-68
2022/04/29 08:14:37;;;;;;;;;;;13.90;99.90;;;;;;5066603;28;19921;-69
2022/04/29 08:17:04;;;;;;;;;;;14.00;99.90;;;;;;5066073;28;19924;-68
2022/04/29 08:19:31;;;;;;;;;;;14.20;99.90;;;;;;5065976;28;19920;-69
2022/04/29 08:21:57;;;;;;;;;;;14.10;99.90;;;;;;5065967;28;19921;-68
2022/04/29 08:24:26;;;;;;;;;;;14.20;99.90;;;;;;5064331;28;19929;-69
2022/04/29 08:26:54;;;;;;;;;;;14.30;99.90;;;;;;5064751;28;19921;-68
2022/04/29 08:29:21;;;;;;;;;;;14.40;99.90;;;;;;5065997;28;20204;-68
2022/04/29 08:31:48;;;;;;;;;;;14.40;99.90;;;;;;5066262;28;19920;-68
2022/04/29 08:34:17;;;;;;;;;;;14.60;99.90;;;;;;5069910;28;19924;-68
2022/04/29 08:36:44;;;;;;;;;;;14.70;99.90;;;;;;5085700;28;19951;-69
2022/04/29 08:39:10;;;;;;;;;;;14.80;99.90;;;;;;5086244;28;19927;-68
2022/04/29 08:41:38;;;;;;;;;;;14.90;99.90;;;;;;5085371;28;19920;-68
2022/04/29 08:44:08;;;;;;;;;;;15.00;99.90;;;;;;5086134;28;19959;-69
2022/04/29 08:46:35;;;;;;;;;;;15.10;99.90;;;;;;5085463;28;20317;-68
2022/04/29 08:49:02;;;;;;;;;;;15.30;99.90;;;;;;5085692;28;19920;-69
2022/04/29 08:51:29;;;;;;;;;;;15.50;99.90;;;;;;5085960;28;19925;-72
2022/04/29 08:53:57;;;;;;;;;;;15.50;99.90;;;;;;5085815;28;20115;-68
2022/04/29 08:59:10;;;;;;;;;;;15.60;99.90;;;;;;5048527;28;19924;-69
2022/04/29 09:01:38;;;;;;;;;;;15.70;99.90;;;;;;5045715;28;19992;-69
2022/04/29 09:04:06;;;;;;;;;;;15.80;99.90;;;;;;5047771;28;19921;-69
2022/04/29 09:06:33;;;;;;;;;;;15.80;99.90;;;;;;5053277;28;20163;-69
2022/04/29 09:09:07;;;;;;;;;;;15.90;99.90;;;;;;5060619;28;19959;-69
2022/04/29 09:11:35;;;;;;;;;;;15.90;99.90;;;;;;5063909;28;19921;-68
2022/04/29 09:14:16;;;;;;;;;;;16.10;99.90;;;;;;5064137;28;20035;-68
2022/04/29 09:16:45;;;;;;;;;;;16.20;99.90;;;;;;5064741;28;20219;-68
2022/04/29 09:19:29;;;;;;;;;;;16.30;99.90;;;;;;5064187;28;19921;-68
2022/04/29 09:22:03;;;;;;;;;;;16.30;99.90;;;;;;5065430;28;19920;-68
2022/04/29 09:24:30;;;;;;;;;;;16.30;99.90;;;;;;5065207;28;20107;-68
2022/04/29 09:26:59;;;;;;;;;;;16.30;99.90;;;;;;5065107;28;19920;-68
2022/04/29 09:29:25;;;;;;;;;;;16.30;99.90;;;;;;5065067;28;19920;-68
2022/04/29 09:31:54;;;;;;;;;;;16.40;99.90;;;;;;5064971;28;20148;-68
2022/04/29 09:34:21;;;;;;;;;;;16.50;99.90;;;;;;5064915;28;20226;-68
2022/04/29 09:36:49;;;;;;;;;;;16.50;99.90;;;;;;5064035;28;19921;-68
2022/04/29 09:39:30;;;;;;;;;;;16.50;99.90;;;;;;5065051;28;19920;-68
2022/04/29 09:41:57;;;;;;;;;;;16.60;99.90;;;;;;5064528;28;19917;-68
2022/04/29 09:44:27;;;;;;;;;;;16.70;99.90;;;;;;5064471;28;19920;-68
2022/04/29 09:46:55;;;;;;;;;;;16.80;99.50;;;;;;5064453;28;19920;-67
2022/04/29 09:49:26;;;;;;;;;;;16.90;99.90;;;;;;5064771;28;19924;-68
2022/04/29 09:51:53;;;;;;;;;;;17.00;99.50;;;;;;5064773;28;19928;-68
2022/04/29 09:54:21;;;;;;;;;;;17.20;99.90;;;;;;5064666;28;19929;-68
2022/04/29 09:57:01;;;;;;;;;;;17.30;99.20;;;;;;5064011;28;20310;-68
2022/04/29 09:59:29;;;;;;;;;;;17.40;98.00;;;;;;5064135;28;19927;-68
2022/04/29 10:01:57;;;;;;;;;;;17.50;99.70;;;;;;5064400;28;19925;-68
2022/04/29 10:04:25;;;;;;;;;;;17.60;98.60;;;;;;5067799;28;19991;-68
2022/04/29 10:06:52;;;;;;;;;;;17.80;98.90;;;;;;5061422;28;19927;-68
2022/04/29 10:09:19;;;;;;;;;;;17.90;97.70;;;;;;5084388;28;19920;-68
2022/04/29 10:11:46;;;;;;;;;;;17.90;98.70;;;;;;5071970;28;19920;-68
2022/04/29 10:14:15;;;;;;;;;;;18.00;97.50;;;;;;5063733;28;19920;-68
2022/04/29 10:16:45;;;;;;;;;;;18.10;96.60;;;;;;5075120;28;19996;-69
2022/04/29 10:22:00;;;;;;;;;;;17.90;96.30;;;;;;5015710;28;19967;-69
2022/04/29 10:24:27;;;;;;;;;;;17.80;98.50;;;;;;5044116;28;19992;-69
2022/04/29 10:26:55;;;;;;;;;;;17.80;97.80;;;;;;5059658;28;20116;-69
2022/04/29 10:29:21;;;;;;;;;;;17.90;95.20;;;;;;5063455;28;19920;-69
2022/04/29 10:32:03;;;;;;;;;;;17.90;96.40;;;;;;5063798;28;19921;-68
2022/04/29 10:34:31;;;;;;;;;;;18.10;96.20;;;;;;5051892;28;19921;-67
2022/04/29 10:36:58;;;;;;;;;;;18.10;95.60;;;;;;5059305;28;19921;-69
2022/04/29 10:39:25;;;;;;;;;;;18.10;96.60;;;;;;5064106;28;19924;-69
2022/04/29 10:41:58;;;;;;;;;;;18.00;96.00;;;;;;5064106;28;19988;-69
2022/04/29 10:44:25;;;;;;;;;;;18.00;95.70;;;;;;5063396;28;20128;-68
2022/04/29 10:46:53;;;;;;;;;;;18.10;96.60;;;;;;5062842;28;20289;-69
2022/04/29 10:49:20;;;;;;;;;;;18.20;95.90;;;;;;5063201;28;19920;-68
2022/04/29 10:51:49;;;;;;;;;;;18.20;95.00;;;;;;5063438;28;19927;-69
2022/04/29 10:54:16;;;;;;;;;;;18.10;94.80;;;;;;5063761;28;19921;-67
2022/04/29 10:56:42;;;;;;;;;;;17.90;96.10;;;;;;5063348;28;19967;-69
2022/04/29 10:59:13;;;;;;;;;;;17.90;95.00;;;;;;5063247;28;19921;-69
2022/04/29 11:01:40;;;;;;;;;;;17.80;96.20;;;;;;5043349;28;19957;-68
2022/04/29 11:04:08;;;;;;;;;;;18.00;95.10;;;;;;5047194;28;19935;-68
2022/04/29 11:06:38;;;;;;;;;;;18.10;95.10;;;;;;5066848;28;19928;-69
2022/04/29 11:09:24;;;;;;;;;;;18.20;95.80;;;;;;5062601;28;20268;-68
2022/04/29 11:11:51;;;;;;;;;;;18.30;95.40;;;;;;5043448;28;19927;-68
2022/04/29 11:14:18;;;;;;;;;;;18.40;96.10;;;;;;5043579;28;20012;-69
2022/04/29 11:16:52;;;;;;;;;;;18.50;94.40;;;;;;5043209;28;19927;-69
2022/04/29 11:19:20;;;;;;;;;;;18.70;96.00;;;;;;5050415;28;19921;-68
2022/04/29 11:24:42;;;;;;;;;;;19.10;96.40;;;;;;5063161;28;19927;-68
2022/04/29 11:27:09;;;;;;;;;;;19.30;95.00;;;;;;5062777;28;20279;-68
2022/04/29 11:29:38;;;;;;;;;;;19.50;94.00;;;;;;5064733;28;19921;-69
2022/04/29 11:32:05;;;;;;;;;;;19.70;93.90;;;;;;5067086;28;20122;-68
2022/04/29 11:34:32;;;;;;;;;;;19.80;94.30;;;;;;5067186;28;19927;-68
2022/04/29 11:36:58;;;;;;;;;;;19.90;94.30;;;;;;5066884;28;19983;-69
2022/04/29 11:39:25;;;;;;;;;;;20.00;93.80;;;;;;5066519;28;19921;-68
2022/04/29 11:41:54;;;;;;;;;;;20.00;93.10;;;;;;5079267;28;19920;-69
2022/04/29 11:44:34;;;;;;;;;;;20.00;92.60;;;;;;5065908;28;19920;-68
2022/04/29 11:47:01;;;;;;;;;;;19.90;92.00;;;;;;5065520;28;19956;-68
2022/04/29 11:49:28;;;;;;;;;;;19.70;92.10;;;;;;5065899;28;19929;-69
2022/04/29 11:51:54;;;;;;;;;;;19.50;92.60;;;;;;5065757;28;19927;-69
2022/04/29 11:54:21;;;;;;;;;;;19.50;92.90;;;;;;5066575;28;19921;-68
2022/04/29 11:56:48;;;;;;;;;;;19.50;95.20;;;;;;5066131;28;19939;-69
2022/04/29 11:59:16;;;;;;;;;;;19.70;94.80;;;;;;5066313;28;20116;-69
2022/04/29 12:01:42;;;;;;;;;;;19.90;92.30;;;;;;5065946;28;19921;-69
2022/04/29 12:04:12;;;;;;;;;;;20.00;92.50;;;;;;5065983;28;19959;-68
2022/04/29 12:06:53;;;;;;;;;;;20.00;92.70;;;;;;5065502;28;19921;-69
2022/04/29 12:09:30;;;;;;;;;;;20.20;92.90;;;;;;5064128;28;20212;-68
2022/04/29 12:11:56;;;;;;;;;;;20.50;92.80;;;;;;5063701;28;19927;-69
2022/04/29 12:14:25;;;;;;;;;;;20.80;92.00;;;;;;5065888;28;19933;-69
2022/04/29 12:16:51;;;;;;;;;;;21.00;91.20;;;;;;5065598;28;19932;-69
2022/04/29 12:19:18;;;;;;;;;;;21.00;90.20;;;;;;5065648;28;19924;-69
2022/04/29 12:21:52;;;;;;;;;;;21.10;89.70;;;;;;5065920;28;19928;-69
2022/04/29 12:24:19;;;;;;;;;;;21.30;90.60;;;;;;5065650;28;19920;-69
2022/04/29 12:27:01;;;;;;;;;;;21.70;91.00;;;;;;5065571;28;19927;-69
2022/04/29 12:29:31;;;;;;;;;;;22.00;90.40;;;;;;5064712;28;19921;-69
2022/04/29 12:34:48;;;;;;;;;;;22.10;83.30;;;;;;5063755;28;19979;-69
2022/04/29 12:37:14;;;;;;;;;;;21.80;84.70;;;;;;5065198;28;20119;-69
2022/04/29 12:39:43;;;;;;;;;;;21.80;87.50;;;;;;5064338;28;19928;-68
2022/04/29 12:42:10;;;;;;;;;;;21.80;85.00;;;;;;5065166;28;19921;-69
2022/04/29 12:45:07;;;;;;;;;;;21.80;85.40;;;;;;5065492;28;20212;-68
2022/04/29 12:47:35;;;;;;;;;;;21.90;84.80;;;;;;5062926;28;19921;-69
2022/04/29 12:50:17;;;;;;;;;;;21.60;84.50;;;;;;5065107;28;19959;-69
2022/04/29 12:52:51;;;;;;;;;;;21.50;85.10;;;;;;5065819;28;19920;-70
2022/04/29 12:55:17;;;;;;;;;;;21.70;85.90;;;;;;5065337;28;19925;-70
2022/04/29 12:57:44;;;;;;;;;;;21.80;83.40;;;;;;5059024;28;19921;-68
2022/04/29 13:00:21;;;;;;;;;;;22.10;84.00;;;;;;5065406;28;19955;-68
2022/04/29 13:02:57;;;;;;;;;;;22.50;84.30;;;;;;5065460;28;19920;-68
2022/04/29 13:05:23;;;;;;;;;;;22.80;81.60;;;;;;5064520;28;19927;-68
2022/04/29 13:07:50;;;;;;;;;;;23.00;83.70;;;;;;5064733;28;19921;-68
2022/04/29 13:10:17;;;;;;;;;;;23.00;79.90;;;;;;5065182;28;19921;-68
2022/04/29 13:12:44;;;;;;;;;;;22.80;80.10;;;;;;5065144;28;20261;-68
2022/04/29 13:15:12;;;;;;;;;;;22.60;81.20;;;;;;5064902;28;19920;-67
2022/04/29 13:17:39;;;;;;;;;;;22.30;82.10;;;;;;5065273;28;19927;-68
2022/04/29 13:20:08;;;;;;;;;;;22.10;81.00;;;;;;5065138;28;19921;-68
2022/04/29 13:22:34;;;;;;;;;;;21.80;80.50;;;;;;5064917;28;19936;-67
2022/04/29 13:25:01;;;;;;;;;;;21.60;82.70;;;;;;5065063;28;20104;-67
2022/04/29 13:27:28;;;;;;;;;;;21.50;84.00;;;;;;5064715;28;19924;-68
2022/04/29 13:29:55;;;;;;;;;;;21.50;83.10;;;;;;5064531;28;19921;-68
2022/04/29 13:32:23;;;;;;;;;;;21.50;82.20;;;;;;5064884;28;20227;-66
2022/04/29 13:34:51;;;;;;;;;;;21.60;82.90;;;;;;5065005;28;19928;-67
2022/04/29 13:37:19;;;;;;;;;;;21.70;83.20;;;;;;5064536;28;19924;-67
2022/04/29 13:39:48;;;;;;;;;;;21.80;81.00;;;;;;5064818;28;19920;-66
2022/04/29 13:42:15;;;;;;;;;;;21.90;80.90;;;;;;5064591;28;19920;-67
2022/04/29 13:44:42;;;;;;;;;;;22.00;82.20;;;;;;5064774;28;19925;-67
2022/04/29 13:47:09;;;;;;;;;;;21.90;82.20;;;;;;5064194;28;19928;-70
2022/04/29 13:49:37;;;;;;;;;;;21.90;82.20;;;;;;5064622;28;19987;-67
2022/04/29 13:54:44;;;;;;;;;;;22.20;82.60;;;;;;5063360;28;19917;-67
2022/04/29 13:57:10;;;;;;;;;;;22.30;83.90;;;;;;5063926;28;19927;-66
2022/04/29 13:59:37;;;;;;;;;;;22.50;81.40;;;;;;5063990;28;19928;-67
2022/04/29 14:02:04;;;;;;;;;;;22.70;80.30;;;;;;5064110;28;19928;-67
2022/04/29 14:04:30;;;;;;;;;;;22.60;80.60;;;;;;5064066;28;20215;-69
2022/04/29 14:06:58;;;;;;;;;;;22.50;80.90;;;;;;5063955;28;19921;-69
2022/04/29 14:09:25;;;;;;;;;;;22.30;79.30;;;;;;5063905;28;19920;-68
2022/04/29 14:11:52;;;;;;;;;;;22.00;80.70;;;;;;5063093;28;20212;-68
2022/04/29 14:14:18;;;;;;;;;;;21.60;78.70;;;;;;5063848;28;20213;-68
2022/04/29 14:16:45;;;;;;;;;;;21.30;80.10;;;;;;5063587;28;19925;-68
2022/04/29 14:19:11;;;;;;;;;;;21.20;83.50;;;;;;5063963;28;19980;-68
2022/04/29 14:21:38;;;;;;;;;;;21.40;80.80;;;;;;5063775;28;19927;-68
2022/04/29 14:24:06;;;;;;;;;;;21.80;83.20;;;;;;5063353;28;19929;-68
2022/04/29 14:26:35;;;;;;;;;;;22.20;82.40;;;;;;5063607;28;20259;-68
2022/04/29 14:29:02;;;;;;;;;;;22.70;80.80;;;;;;5063806;28;19924;-68
2022/04/29 14:31:30;;;;;;;;;;;23.20;80.70;;;;;;5063728;28;19928;-68
2022/04/29 14:33:58;;;;;;;;;;;23.60;81.80;;;;;;5063480;28;19933;-68
2022/04/29 14:36:26;;;;;;;;;;;24.00;79.70;;;;;;5063113;28;19963;-68
2022/04/29 14:38:52;;;;;;;;;;;24.10;75.00;;;;;;5063681;28;19931;-69
2022/04/29 14:41:20;;;;;;;;;;;24.20;77.70;;;;;;5063645;28;19924;-69
2022/04/29 14:43:47;;;;;;;;;;;24.10;77.70;;;;;;5063090;28;19966;-69
2022/04/29 14:46:14;;;;;;;;;;;24.30;78.90;;;;;;5062931;28;19920;-68
2022/04/29 14:48:42;;;;;;;;;;;24.30;77.60;;;;;;5063727;28;19921;-69
2022/04/29 14:51:10;;;;;;;;;;;24.40;77.10;;;;;;5063313;28;19929;-69
2022/04/29 14:53:37;;;;;;;;;;;24.50;77.00;;;;;;5063313;28;19927;-69
2022/04/29 14:56:04;;;;;;;;;;;24.60;73.60;;;;;;5043182;28;19928;-69
2022/04/29 14:58:32;;;;;;;;;;;24.70;74.40;;;;;;5043345;28;19921;-66